createdAt,value
2023-02-18T00:00:28.857Z,11.80
2023-02-18T00:02:58.477Z,12.02
2023-02-18T00:05:25.451Z,16.95
2023-02-18T00:07:52.232Z,16.58
2023-02-18T00:10:19.117Z,17.05
2023-02-18T00:12:46.301Z,13.45
2023-02-18T00:15:13.378Z,15.93
2023-02-18T00:17:40.106Z,11.88
2023-02-18T00:20:08.335Z,17.70
2023-02-18T00:22:35.584Z,13.43
2023-02-18T00:25:02.354Z,15.68
2023-02-18T00:27:29.035Z,13.15
2023-02-18T00:29:55.913Z,16.30
2023-02-18T00:32:22.852Z,13.60
2023-02-18T00:34:49.701Z,19.23
2023-02-18T00:37:16.458Z,17.42
2023-02-18T00:39:44.183Z,16.15
2023-02-18T00:42:10.936Z,10.40
2023-02-18T00:44:37.712Z,17.85
2023-02-18T00:47:04.570Z,15.75
2023-02-18T00:49:31.567Z,14.82
2023-02-18T00:51:58.304Z,11.93
2023-02-18T00:54:25.046Z,12.93
2023-02-18T00:56:51.898Z,18.60
2023-02-18T00:59:18.694Z,16.63
2023-02-18T01:01:45.464Z,16.27
2023-02-18T01:04:12.924Z,15.70
2023-02-18T01:06:39.999Z,15.10
2023-02-18T01:09:06.883Z,14.65
2023-02-18T01:11:33.649Z,21.33
2023-02-18T01:14:00.506Z,19.98
2023-02-18T01:16:27.532Z,18.80
2023-02-18T01:18:54.536Z,19.83
2023-02-18T01:21:21.432Z,15.77
2023-02-18T01:23:48.395Z,19.30
2023-02-18T01:26:15.397Z,14.00
2023-02-18T01:28:42.182Z,15.02
2023-02-18T01:31:11.538Z,20.10
2023-02-18T01:33:38.417Z,15.27
2023-02-18T01:36:06.471Z,17.98
2023-02-18T01:38:33.995Z,17.73
2023-02-18T01:41:00.745Z,19.08
2023-02-18T01:43:27.625Z,13.75
2023-02-18T01:46:14.311Z,12.88
2023-02-18T01:49:01.010Z,16.60
2023-02-18T01:51:32.157Z,17.13
2023-02-18T01:54:04.003Z,19.88
2023-02-18T01:56:47.091Z,20.00
2023-02-18T01:59:18.602Z,14.10
2023-02-18T02:01:46.754Z,20.90
2023-02-18T02:04:13.738Z,14.02
2023-02-18T02:06:40.484Z,15.85
2023-02-18T02:09:11.991Z,16.50
2023-02-18T02:11:55.188Z,16.27
2023-02-18T02:14:39.484Z,15.73
2023-02-18T02:17:21.364Z,19.08
2023-02-18T02:20:00.228Z,18.67
2023-02-18T02:22:26.887Z,20.48
2023-02-18T02:25:09.930Z,20.05
2023-02-18T02:28:08.658Z,20.70
2023-02-18T02:30:58.721Z,12.70
2023-02-18T02:33:44.230Z,15.93
2023-02-18T02:36:19.465Z,17.35
2023-02-18T02:38:52.107Z,17.67
2023-02-18T02:41:44.793Z,19.27
2023-02-18T02:44:28.813Z,16.58
2023-02-18T02:47:07.645Z,18.25
2023-02-18T02:49:59.939Z,19.50
2023-02-18T02:52:35.203Z,16.65
2023-02-18T02:55:13.539Z,20.90
2023-02-18T02:57:45.348Z,20.92
2023-02-18T03:00:13.580Z,17.63
2023-02-18T03:02:56.049Z,17.02
2023-02-18T03:06:05.414Z,20.55
2023-02-18T03:09:05.639Z,20.33
2023-02-18T03:11:42.831Z,14.02
2023-02-18T03:14:18.117Z,18.33
2023-02-18T03:17:02.526Z,18.00
2023-02-18T03:22:27.406Z,13.73
2023-02-18T03:24:57.569Z,16.98
2023-02-18T03:27:30.456Z,16.67
2023-02-18T03:30:01.929Z,16.80
2023-02-18T03:32:31.611Z,14.40
2023-02-18T03:35:06.026Z,19.17
2023-02-18T03:37:38.158Z,19.45
2023-02-18T03:40:06.602Z,18.90
2023-02-18T03:42:33.364Z,13.68
2023-02-18T03:45:00.076Z,17.30
2023-02-18T03:47:27.088Z,20.88
2023-02-18T03:49:53.808Z,15.98
2023-02-18T03:52:20.636Z,16.52
2023-02-18T03:54:47.258Z,18.80
2023-02-18T03:57:13.962Z,16.58
2023-02-18T03:59:40.802Z,18.00
2023-02-18T04:02:07.689Z,20.58
2023-02-18T04:04:34.486Z,18.23
2023-02-18T04:07:01.219Z,14.82
2023-02-18T04:09:27.903Z,14.02
2023-02-18T04:11:54.579Z,16.13
2023-02-18T04:14:21.220Z,20.00
2023-02-18T04:16:47.889Z,22.08
2023-02-18T04:19:14.562Z,19.00
2023-02-18T04:21:41.226Z,16.52
2023-02-18T04:24:07.880Z,11.10
2023-02-18T04:26:34.629Z,17.50
2023-02-18T04:29:01.389Z,15.40
2023-02-18T04:31:28.392Z,18.67
2023-02-18T04:33:55.395Z,25.15
2023-02-18T04:36:22.131Z,15.63
2023-02-18T04:38:48.785Z,14.05
2023-02-18T04:41:15.613Z,16.67
2023-02-18T04:43:43.249Z,15.68
2023-02-18T04:46:10.257Z,17.25
2023-02-18T04:48:37.156Z,14.23
2023-02-18T04:51:04.413Z,16.45
2023-02-18T04:53:31.170Z,17.60
2023-02-18T04:55:57.815Z,12.35
2023-02-18T04:58:24.528Z,22.73
2023-02-18T05:00:51.713Z,12.18
2023-02-18T05:03:18.417Z,16.48
2023-02-18T05:05:45.899Z,14.57
2023-02-18T05:08:12.716Z,17.13
2023-02-18T05:10:39.532Z,14.65
2023-02-18T05:13:06.377Z,12.02
2023-02-18T05:15:33.258Z,12.88
2023-02-18T05:18:00.106Z,14.50
2023-02-18T05:20:27.504Z,18.02
2023-02-18T05:22:54.153Z,18.65
2023-02-18T05:25:21.215Z,19.75
2023-02-18T05:27:48.092Z,13.55
2023-02-18T05:30:14.959Z,20.17
2023-02-18T05:32:41.816Z,18.00
2023-02-18T05:35:08.673Z,19.13
2023-02-18T05:37:35.856Z,16.20
2023-02-18T05:40:03.327Z,13.77
2023-02-18T05:42:30.162Z,18.58
2023-02-18T05:44:56.804Z,10.82
2023-02-18T05:47:23.529Z,23.25
2023-02-18T05:49:50.993Z,18.38
2023-02-18T05:52:17.764Z,17.65
2023-02-18T05:54:44.993Z,16.55
2023-02-18T05:57:14.735Z,19.58
2023-02-18T05:59:41.583Z,21.88
2023-02-18T06:02:08.439Z,15.48
2023-02-18T06:04:35.322Z,13.40
2023-02-18T06:07:01.990Z,14.93
2023-02-18T06:09:28.766Z,19.98
2023-02-18T06:11:55.553Z,13.25
2023-02-18T06:14:22.269Z,13.77
2023-02-18T06:16:49.013Z,12.57
2023-02-18T06:19:15.649Z,19.13
2023-02-18T06:21:42.355Z,22.10
2023-02-18T06:24:09.158Z,14.77
2023-02-18T06:26:35.842Z,17.17
2023-02-18T06:29:02.814Z,19.08
2023-02-18T06:31:29.566Z,14.65
2023-02-18T06:33:56.403Z,24.63
2023-02-18T06:36:23.329Z,21.77
2023-02-18T06:38:50.049Z,14.20
2023-02-18T06:41:17.060Z,19.95
2023-02-18T06:43:43.727Z,19.55
2023-02-18T06:46:10.709Z,18.48
2023-02-18T06:48:38.879Z,19.30
2023-02-18T06:51:05.880Z,15.32
2023-02-18T06:53:32.633Z,16.80
2023-02-18T06:55:59.410Z,14.40
2023-02-18T06:58:26.072Z,17.05
2023-02-18T07:00:52.953Z,13.07
2023-02-18T07:03:19.732Z,16.75
2023-02-18T07:05:46.537Z,19.75
2023-02-18T07:08:13.824Z,14.88
2023-02-18T07:10:40.833Z,11.95
2023-02-18T07:13:07.672Z,18.35
2023-02-18T07:15:34.483Z,16.55
2023-02-18T07:18:01.192Z,13.52
2023-02-18T07:20:28.397Z,12.48
2023-02-18T07:22:55.312Z,15.07
2023-02-18T07:25:23.304Z,11.80
2023-02-18T07:27:51.092Z,8.80
2023-02-18T07:30:19.726Z,7.72
2023-02-18T07:32:46.500Z,6.82
2023-02-18T07:35:17.786Z,10.35
2023-02-18T07:37:46.663Z,7.10
2023-02-18T07:40:15.869Z,6.38
2023-02-18T07:42:42.616Z,7.88
2023-02-18T07:45:10.448Z,5.97
2023-02-18T07:47:37.489Z,8.10
2023-02-18T07:50:05.735Z,4.43
2023-02-18T07:52:32.469Z,8.40
2023-02-18T07:54:59.158Z,8.10
2023-02-18T07:57:26.074Z,5.35
2023-02-18T07:59:52.911Z,6.55
2023-02-18T08:02:22.006Z,7.07
2023-02-18T08:04:49.535Z,8.60
2023-02-18T08:07:17.915Z,8.48
2023-02-18T08:09:44.759Z,7.88
2023-02-18T08:12:11.533Z,5.72
2023-02-18T08:14:38.243Z,7.75
2023-02-18T08:17:05.026Z,6.18
2023-02-18T08:19:31.770Z,5.47
2023-02-18T08:22:02.326Z,6.90
2023-02-18T08:24:29.179Z,7.93
2023-02-18T08:27:00.901Z,9.55
2023-02-18T08:29:28.941Z,9.70
2023-02-18T08:31:57.374Z,11.15
2023-02-18T08:34:24.219Z,6.10
2023-02-18T08:36:51.031Z,3.22
2023-02-18T08:39:17.763Z,7.65
2023-02-18T08:41:44.471Z,8.05
2023-02-18T08:44:11.311Z,9.98
2023-02-18T08:46:38.076Z,6.68
2023-02-18T08:49:05.154Z,7.68
2023-02-18T08:51:32.140Z,8.40
2023-02-18T08:53:59.457Z,12.35
2023-02-18T08:56:26.535Z,6.70
2023-02-18T08:58:53.506Z,8.57
2023-02-18T09:01:21.193Z,4.55
2023-02-18T09:03:48.807Z,8.80
2023-02-18T09:06:15.837Z,8.77
2023-02-18T09:08:42.631Z,6.07
2023-02-18T09:11:11.549Z,7.63
2023-02-18T09:13:39.406Z,6.90
2023-02-18T09:16:13.764Z,6.95
2023-02-18T09:18:41.426Z,5.95
2023-02-18T09:21:11.994Z,7.05
2023-02-18T09:23:39.552Z,5.43
2023-02-18T09:26:08.380Z,5.75
2023-02-18T09:28:35.792Z,5.82
2023-02-18T09:31:12.917Z,6.82
2023-02-18T09:33:42.481Z,5.93
2023-02-18T09:36:09.561Z,8.05
2023-02-18T09:38:36.909Z,8.68
2023-02-18T09:41:09.294Z,9.43
2023-02-18T09:43:43.701Z,5.43
2023-02-18T09:46:23.953Z,4.20
2023-02-18T09:48:52.072Z,4.05
2023-02-18T09:51:19.702Z,8.70
2023-02-18T09:53:47.031Z,6.82
2023-02-18T09:56:22.629Z,10.48
2023-02-18T09:58:50.778Z,6.88
2023-02-18T10:01:35.714Z,7.50
2023-02-18T10:04:10.397Z,3.20
2023-02-18T10:06:37.893Z,3.78
2023-02-18T10:09:14.813Z,7.13
2023-02-18T10:11:44.001Z,5.18
2023-02-18T10:14:13.371Z,7.25
2023-02-18T10:16:40.201Z,7.53
2023-02-18T10:19:32.972Z,8.93
2023-02-18T10:22:02.417Z,7.93
2023-02-18T10:24:50.463Z,10.25
2023-02-18T10:27:26.139Z,7.75
2023-02-18T10:29:54.084Z,6.63
2023-02-18T10:32:34.519Z,6.75
2023-02-18T10:35:22.380Z,2.40
2023-02-18T10:38:09.660Z,4.88
2023-02-18T10:41:27.288Z,5.78
2023-02-18T10:44:06.366Z,3.75
2023-02-18T10:46:40.380Z,4.78
2023-02-18T10:49:14.035Z,5.63
2023-02-18T10:51:48.145Z,4.45
2023-02-18T10:54:15.890Z,4.53
2023-02-18T10:56:58.508Z,5.65
2023-02-18T10:59:27.812Z,4.57
2023-02-18T11:02:30.735Z,6.13
2023-02-18T11:05:00.131Z,5.53
2023-02-18T11:07:32.353Z,4.72
2023-02-18T11:10:01.339Z,3.28
2023-02-18T11:12:49.695Z,5.82
2023-02-18T11:15:28.643Z,3.33
2023-02-18T11:17:59.594Z,3.63
2023-02-18T11:20:32.473Z,7.28
2023-02-18T11:23:20.995Z,4.25
2023-02-18T11:26:15.960Z,2.78
2023-02-18T11:28:48.685Z,4.68
2023-02-18T11:31:24.708Z,2.63
2023-02-18T11:33:56.919Z,2.55
2023-02-18T11:36:31.349Z,1.20
2023-02-18T11:39:07.786Z,2.80
2023-02-18T11:41:39.321Z,1.75
2023-02-18T11:44:20.846Z,2.75
2023-02-18T11:46:59.818Z,1.45
2023-02-18T11:49:27.315Z,2.80
2023-02-18T11:51:54.042Z,2.78
2023-02-18T11:54:23.674Z,4.35
2023-02-18T11:57:01.665Z,5.25
2023-02-18T11:59:32.096Z,4.82
2023-02-18T12:02:11.046Z,2.97
2023-02-18T12:04:47.846Z,4.35
2023-02-18T12:07:24.368Z,3.95
2023-02-18T12:09:56.222Z,3.70
2023-02-18T12:15:01.316Z,3.75
2023-02-18T12:17:34.328Z,3.33
2023-02-18T12:20:19.629Z,5.82
2023-02-18T12:23:13.507Z,9.95
2023-02-18T12:25:58.980Z,1.80
2023-02-18T12:28:37.340Z,2.13
2023-02-18T12:31:16.055Z,1.75
2023-02-18T12:34:20.513Z,1.27
2023-02-18T12:36:50.224Z,1.70
2023-02-18T12:39:30.390Z,3.50
2023-02-18T12:42:24.241Z,3.05
2023-02-18T12:45:14.918Z,0.88
2023-02-18T12:48:09.953Z,3.03
2023-02-18T12:51:15.339Z,1.48
2023-02-18T12:53:57.259Z,1.70
2023-02-18T12:56:50.521Z,2.25
2023-02-18T12:59:54.750Z,1.67
2023-02-18T13:03:06.370Z,2.42
2023-02-18T13:05:41.314Z,4.68
2023-02-18T13:08:11.431Z,4.88
2023-02-18T13:10:49.856Z,1.42
2023-02-18T13:15:51.961Z,1.83
2023-02-18T13:18:34.486Z,1.13
2023-02-18T13:21:08.641Z,1.30
2023-02-18T13:23:40.080Z,2.55
2023-02-18T13:26:11.818Z,2.10
2023-02-18T13:31:25.144Z,0.57
2023-02-18T13:34:21.660Z,2.75
2023-02-18T13:37:11.079Z,1.20
2023-02-18T13:39:46.037Z,3.92
2023-02-18T13:42:25.523Z,1.95
2023-02-18T13:44:55.382Z,1.00
2023-02-18T13:47:40.160Z,0.63
2023-02-18T13:50:26.722Z,0.88
2023-02-18T13:53:08.605Z,0.50
2023-02-18T13:55:47.845Z,2.95
2023-02-18T13:58:29.721Z,3.08
2023-02-18T14:01:05.600Z,1.10
2023-02-18T14:03:38.283Z,1.48
2023-02-18T14:06:48.470Z,1.20
2023-02-18T14:09:15.155Z,2.40
2023-02-18T14:12:09.501Z,4.45
2023-02-18T14:14:38.326Z,4.97
2023-02-18T14:17:18.692Z,2.53
2023-02-18T14:20:00.715Z,2.17
2023-02-18T14:22:45.830Z,4.07
2023-02-18T14:25:21.442Z,3.80
2023-02-18T14:27:54.041Z,3.33
2023-02-18T14:30:30.223Z,1.80
2023-02-18T14:33:00.969Z,5.65
2023-02-18T14:35:27.789Z,3.67
2023-02-18T14:38:05.241Z,2.72
2023-02-18T14:40:50.303Z,4.30
2023-02-18T14:43:50.515Z,2.05
2023-02-18T14:46:36.155Z,3.50
2023-02-18T14:49:21.100Z,1.80
2023-02-18T14:51:48.735Z,3.95
2023-02-18T14:54:19.160Z,3.78
2023-02-18T14:57:05.585Z,3.28
2023-02-18T14:59:37.445Z,2.90
2023-02-18T15:02:04.196Z,3.80
2023-02-18T15:04:31.010Z,3.40
2023-02-18T15:07:09.244Z,2.15
2023-02-18T15:09:46.101Z,4.05
2023-02-18T15:12:18.118Z,4.13
2023-02-18T15:14:47.174Z,2.53
2023-02-18T15:17:20.481Z,1.42
2023-02-18T15:19:59.431Z,2.90
2023-02-18T15:22:29.658Z,3.25
2023-02-18T15:24:57.714Z,1.75
2023-02-18T15:27:28.721Z,1.08
2023-02-18T15:30:21.339Z,2.85
2023-02-18T15:32:54.125Z,2.38
2023-02-18T15:35:23.159Z,3.33
2023-02-18T15:37:55.581Z,1.88
2023-02-18T15:40:24.796Z,2.75
2023-02-18T15:42:53.694Z,2.58
2023-02-18T15:45:42.241Z,4.45
2023-02-18T15:48:36.546Z,4.97
2023-02-18T15:51:16.444Z,7.82
2023-02-18T15:53:47.361Z,7.15
2023-02-18T15:56:38.966Z,5.93
2023-02-18T15:59:21.710Z,5.95
2023-02-18T16:01:57.597Z,6.93
2023-02-18T16:04:30.223Z,4.47
2023-02-18T16:06:57.055Z,2.85
2023-02-18T16:09:27.251Z,1.95
2023-02-18T16:12:00.342Z,2.28
2023-02-18T16:14:35.014Z,3.30
2023-02-18T16:17:27.607Z,3.78
2023-02-18T16:20:04.799Z,1.52
2023-02-18T16:22:42.640Z,3.55
2023-02-18T16:25:22.281Z,2.58
2023-02-18T16:27:52.311Z,3.63
2023-02-18T16:30:24.981Z,2.75
2023-02-18T16:32:52.156Z,2.75
2023-02-18T16:35:19.547Z,2.35
2023-02-18T16:37:48.044Z,3.42
2023-02-18T16:40:29.934Z,3.00
2023-02-18T16:42:59.464Z,2.85
2023-02-18T16:45:37.031Z,3.30
2023-02-18T16:48:04.966Z,1.75
2023-02-18T16:50:33.628Z,1.95
2023-02-18T16:53:00.821Z,4.60
2023-02-18T16:55:29.509Z,4.00
2023-02-18T16:57:57.612Z,7.70
2023-02-18T17:00:24.381Z,6.18
2023-02-18T17:02:54.442Z,6.72
2023-02-18T17:05:27.693Z,3.30
2023-02-18T17:07:55.745Z,4.57
2023-02-18T17:10:22.654Z,3.35
2023-02-18T17:12:49.640Z,4.05
2023-02-18T17:15:29.828Z,4.40
2023-02-18T17:17:59.360Z,2.60
2023-02-18T17:20:32.016Z,6.65
2023-02-18T17:22:59.732Z,7.13
2023-02-18T17:25:36.611Z,6.22
2023-02-18T17:28:04.467Z,4.57
2023-02-18T17:30:34.887Z,6.53
2023-02-18T17:33:03.386Z,3.72
2023-02-18T17:35:30.977Z,4.75
2023-02-18T17:37:57.892Z,4.45
2023-02-18T17:40:27.265Z,4.32
2023-02-18T17:42:55.403Z,3.75
2023-02-18T17:45:32.165Z,5.55
2023-02-18T17:48:00.247Z,4.25
2023-02-18T17:50:28.387Z,4.95
2023-02-18T17:52:55.539Z,7.25
2023-02-18T17:55:29.257Z,6.75
2023-02-18T17:57:56.456Z,6.82
2023-02-18T18:00:33.024Z,7.40
2023-02-18T18:03:00.336Z,6.95
2023-02-18T18:05:36.422Z,8.60
2023-02-18T18:08:04.435Z,14.70
2023-02-18T18:10:35.262Z,10.38
2023-02-18T18:13:05.057Z,12.18
2023-02-18T18:15:43.928Z,11.27
2023-02-18T18:18:12.959Z,12.32
2023-02-18T18:20:43.126Z,12.38
2023-02-18T18:23:12.814Z,10.50
2023-02-18T18:25:42.625Z,5.85
2023-02-18T18:28:09.442Z,5.97
2023-02-18T18:30:39.046Z,4.72
2023-02-18T18:33:27.376Z,5.65
2023-02-18T18:35:56.373Z,5.03
2023-02-18T18:38:25.962Z,7.50
2023-02-18T18:40:53.325Z,5.82
2023-02-18T18:43:26.262Z,4.80
2023-02-18T18:45:53.968Z,5.43
2023-02-18T18:48:22.802Z,5.05
2023-02-18T18:50:51.061Z,5.43
2023-02-18T18:53:23.794Z,3.58
2023-02-18T18:55:53.051Z,4.35
2023-02-18T18:58:24.618Z,5.07
2023-02-18T19:00:55.142Z,3.85
2023-02-18T19:03:24.264Z,4.55
2023-02-18T19:05:51.881Z,6.50
2023-02-18T19:08:20.327Z,7.90
2023-02-18T19:10:52.458Z,5.65
2023-02-18T19:15:49.209Z,9.13
2023-02-18T19:18:19.176Z,4.30
2023-02-18T19:20:47.515Z,4.97
2023-02-18T19:23:14.856Z,6.72
2023-02-18T19:25:42.174Z,6.05
2023-02-18T19:28:13.870Z,5.72
2023-02-18T19:30:44.017Z,8.52
2023-02-18T19:33:12.712Z,9.13
2023-02-18T19:35:40.661Z,8.48
2023-02-18T19:38:12.212Z,7.53
2023-02-18T19:40:39.765Z,10.15
2023-02-18T19:43:07.026Z,8.63
2023-02-18T19:45:35.894Z,6.50
2023-02-18T19:48:03.109Z,6.53
2023-02-18T19:50:33.401Z,6.40
2023-02-18T19:53:00.549Z,6.75
2023-02-18T19:55:27.851Z,8.25
2023-02-18T19:57:54.602Z,9.27
2023-02-18T20:00:23.010Z,6.90
2023-02-18T20:02:50.549Z,8.32
2023-02-18T20:05:17.913Z,4.57
2023-02-18T20:07:46.825Z,5.85
2023-02-18T20:10:17.363Z,5.10
2023-02-18T20:12:44.216Z,7.57
2023-02-18T20:15:11.095Z,7.28
2023-02-18T20:17:39.391Z,9.35
2023-02-18T20:20:07.458Z,7.47
2023-02-18T20:22:34.603Z,6.93
2023-02-18T20:25:01.656Z,5.57
2023-02-18T20:27:28.648Z,7.68
2023-02-18T20:29:55.645Z,8.48
2023-02-18T20:32:22.353Z,9.27
2023-02-18T20:34:49.115Z,17.30
2023-02-18T20:37:16.195Z,18.50
2023-02-18T20:39:42.985Z,15.80
2023-02-18T20:42:16.224Z,8.43
2023-02-18T20:44:44.032Z,7.93
2023-02-18T20:47:13.794Z,8.93
2023-02-18T20:49:41.014Z,8.75
2023-02-18T20:52:09.550Z,7.95
2023-02-18T20:54:36.803Z,7.32
2023-02-18T20:57:03.605Z,6.38
2023-02-18T20:59:33.239Z,10.15
2023-02-18T21:02:00.952Z,9.82
2023-02-18T21:04:27.986Z,8.95
2023-02-18T21:06:55.682Z,10.93
2023-02-18T21:09:23.214Z,13.18
2023-02-18T21:11:49.996Z,11.95
2023-02-18T21:14:17.052Z,12.07
2023-02-18T21:16:44.506Z,9.98
2023-02-18T21:19:13.936Z,12.05
2023-02-18T21:21:41.832Z,9.55
2023-02-18T21:24:08.956Z,8.88
2023-02-18T21:26:35.662Z,10.10
2023-02-18T21:29:05.703Z,10.48
2023-02-18T21:31:35.498Z,8.00
2023-02-18T21:34:03.493Z,12.05
2023-02-18T21:36:31.665Z,7.30
2023-02-18T21:39:00.728Z,13.32
2023-02-18T21:41:28.981Z,9.85
2023-02-18T21:43:57.672Z,9.20
2023-02-18T21:46:29.505Z,13.45
2023-02-18T21:49:02.820Z,9.68
2023-02-18T21:51:49.691Z,9.45
2023-02-18T21:54:21.300Z,9.07
2023-02-18T21:56:49.348Z,12.63
2023-02-18T21:59:17.128Z,16.10
2023-02-18T22:01:44.414Z,14.98
2023-02-18T22:04:11.878Z,11.30
2023-02-18T22:06:38.701Z,13.95
2023-02-18T22:09:06.741Z,11.98
2023-02-18T22:11:34.125Z,11.55
2023-02-18T22:14:01.046Z,10.30
2023-02-18T22:16:28.682Z,9.80
2023-02-18T22:18:57.129Z,10.57
2023-02-18T22:21:24.037Z,12.07
2023-02-18T22:23:50.794Z,17.65
2023-02-18T22:26:17.911Z,14.90
2023-02-18T22:28:47.644Z,9.02
2023-02-18T22:31:14.790Z,10.40
2023-02-18T22:33:43.304Z,9.10
2023-02-18T22:36:10.359Z,7.80
2023-02-18T22:38:38.152Z,7.38
2023-02-18T22:41:10.875Z,10.13
2023-02-18T22:43:37.833Z,6.63
2023-02-18T22:46:07.805Z,10.85
2023-02-18T22:48:36.298Z,11.30
2023-02-18T22:51:18.044Z,13.18
2023-02-18T22:53:45.432Z,8.20
2023-02-18T22:56:14.874Z,13.93
2023-02-18T22:58:42.684Z,12.52
2023-02-18T23:01:22.767Z,12.60
2023-02-18T23:03:50.650Z,13.48
2023-02-18T23:06:17.895Z,7.15
2023-02-18T23:08:44.647Z,9.68
2023-02-18T23:11:13.933Z,14.18
2023-02-18T23:13:41.810Z,8.63
2023-02-18T23:16:12.888Z,15.77
2023-02-18T23:18:39.943Z,12.63
2023-02-18T23:21:18.635Z,13.63
2023-02-18T23:23:47.667Z,9.18
2023-02-18T23:26:14.938Z,19.80
2023-02-18T23:28:50.782Z,13.95
2023-02-18T23:31:18.781Z,9.73
2023-02-18T23:33:47.182Z,12.48
2023-02-18T23:36:16.778Z,10.20
2023-02-18T23:38:48.304Z,12.13
2023-02-18T23:41:15.762Z,9.82
2023-02-18T23:43:42.397Z,18.52
2023-02-18T23:46:09.132Z,15.60
2023-02-18T23:48:38.321Z,10.95
2023-02-18T23:51:07.005Z,8.80
2023-02-18T23:53:35.068Z,11.10
2023-02-18T23:56:12.808Z,7.55
2023-02-18T23:58:41.059Z,8.73
